Time;durP1;ratioP1;P1;durP2;ratioP2;P2;SDS_P1;SDS_P2;PMS_P1;PMS_P2;Temp;Humidity;BMP_temperature;BMP_pressure;BME280_temperature;BME280_humidity;BME280_pressure;Samples;Min_cycle;Max_cycle;Signal;HPM_P1;HPM_P2
2023/01/04 06:00:51;;;;;;;2.90;2.70;;;7.10;97.20;;;;;;1675262;29;20213;-71
2023/01/04 06:01:42;;;;;;;2.60;2.40;;;7.10;97.20;;;;;;1674953;29;20210;-71
2023/01/04 06:02:33;;;;;;;2.70;2.50;;;7.10;97.20;;;;;;1674649;29;20217;-71
2023/01/04 06:03:24;;;;;;;3.08;2.78;;;7.10;97.20;;;;;;1674857;29;20210;-72
2023/01/04 06:04:16;;;;;;;3.57;3.03;;;7.10;97.20;;;;;;1675082;29;20214;-71
2023/01/04 06:05:08;;;;;;;2.90;2.70;;;7.10;97.20;;;;;;1675093;29;20205;-71
2023/01/04 06:06:00;;;;;;;3.20;2.90;;;7.10;97.20;;;;;;1674943;29;20292;-71
2023/01/04 06:06:51;;;;;;;2.80;2.60;;;7.10;97.20;;;;;;1674928;29;20697;-71
2023/01/04 06:07:42;;;;;;;3.40;2.80;;;7.10;97.20;;;;;;1674985;29;20733;-71
2023/01/04 06:08:33;;;;;;;2.72;2.53;;;7.10;97.20;;;;;;1675096;29;20213;-71
2023/01/04 06:09:26;;;;;;;3.30;2.97;;;7.10;97.20;;;;;;1675094;29;20206;-71
2023/01/04 06:10:18;;;;;;;2.80;2.60;;;7.10;97.20;;;;;;1674945;29;20237;-71
2023/01/04 06:11:09;;;;;;;3.08;2.80;;;7.10;97.20;;;;;;1675078;29;20610;-71
2023/01/04 06:12:00;;;;;;;3.40;3.10;;;7.10;97.20;;;;;;1674980;29;20210;-71
2023/01/04 06:12:52;;;;;;;3.20;2.90;;;7.10;97.20;;;;;;1674692;29;20212;-71
2023/01/04 06:13:42;;;;;;;2.67;2.47;;;7.10;97.20;;;;;;1674722;29;20221;-72
2023/01/04 06:14:33;;;;;;;3.30;3.00;;;7.10;97.20;;;;;;1675093;29;20210;-71
2023/01/04 06:15:25;;;;;;;3.00;2.80;;;7.10;97.20;;;;;;1675091;29;20217;-71
2023/01/04 06:16:17;;;;;;;3.00;2.72;;;7.10;97.20;;;;;;1674655;29;20210;-71
2023/01/04 06:17:09;;;;;;;3.65;3.33;;;7.10;97.20;;;;;;1674697;29;20617;-71
2023/01/04 06:18:00;;;;;;;3.17;2.83;;;7.10;97.20;;;;;;1674892;29;20210;-71
2023/01/04 06:18:51;;;;;;;4.20;3.80;;;7.10;97.20;;;;;;1674473;29;20208;-71
2023/01/04 06:19:42;;;;;;;4.15;2.88;;;7.10;97.20;;;;;;1674761;29;20217;-71
2023/01/04 06:20:34;;;;;;;2.73;2.53;;;7.20;97.20;;;;;;1674575;29;20224;-71
2023/01/04 06:21:24;;;;;;;3.20;2.90;;;7.20;97.20;;;;;;1674893;29;20657;-71
2023/01/04 06:22:16;;;;;;;2.90;2.70;;;7.20;97.20;;;;;;1674500;29;20665;-71
2023/01/04 06:23:07;;;;;;;3.22;2.97;;;7.20;97.20;;;;;;1674806;29;20229;-71
2023/01/04 06:23:59;;;;;;;2.92;2.63;;;7.20;97.20;;;;;;1674825;29;20206;-71
2023/01/04 06:24:50;;;;;;;3.30;3.00;;;7.20;97.20;;;;;;1675074;29;20602;-71
2023/01/04 06:25:43;;;;;;;3.57;3.03;;;7.20;97.20;;;;;;1674823;29;20566;-71
2023/01/04 06:26:33;;;;;;;2.90;2.70;;;7.20;97.20;;;;;;1674895;29;20220;-71
2023/01/04 06:27:25;;;;;;;3.17;2.97;;;7.20;97.20;;;;;;1674827;29;20209;-71
2023/01/04 06:28:16;;;;;;;2.95;2.65;;;7.20;97.20;;;;;;1674967;29;20218;-71
2023/01/04 06:29:08;;;;;;;3.50;3.10;;;7.20;97.20;;;;;;1674955;29;20281;-71
2023/01/04 06:29:58;;;;;;;2.70;2.50;;;7.20;97.20;;;;;;1674860;29;20209;-71
2023/01/04 06:30:50;;;;;;;3.20;2.87;;;7.20;97.20;;;;;;1673636;29;20708;-71
2023/01/04 06:31:42;;;;;;;3.03;2.70;;;7.20;97.20;;;;;;1674865;29;20214;-71
2023/01/04 06:32:34;;;;;;;3.15;2.67;;;7.20;97.20;;;;;;1674490;29;20206;-71
2023/01/04 06:33:25;;;;;;;2.60;2.40;;;7.20;97.20;;;;;;1674502;29;20206;-71
2023/01/04 06:34:16;;;;;;;3.10;2.80;;;7.20;97.20;;;;;;1674993;29;20728;-71
2023/01/04 06:35:07;;;;;;;4.15;2.83;;;7.20;97.20;;;;;;1675012;29;20213;-72
2023/01/04 06:36:00;;;;;;;2.80;2.55;;;7.20;97.20;;;;;;1674859;29;20202;-71
2023/01/04 06:36:51;;;;;;;3.22;3.00;;;7.20;97.20;;;;;;1674708;29;20210;-70
2023/01/04 06:37:42;;;;;;;2.80;2.57;;;7.20;97.20;;;;;;1674949;29;20218;-71
2023/01/04 06:38:33;;;;;;;2.53;2.30;;;7.20;97.20;;;;;;1675006;29;20214;-71
2023/01/04 06:39:25;;;;;;;2.70;2.50;;;7.20;97.20;;;;;;1674832;29;20300;-71
2023/01/04 06:40:16;;;;;;;2.95;2.70;;;7.30;97.20;;;;;;1674476;29;20213;-71
2023/01/04 06:41:07;;;;;;;2.60;2.40;;;7.20;97.20;;;;;;1674890;29;20212;-71
2023/01/04 06:41:58;;;;;;;2.50;2.30;;;7.30;97.20;;;;;;1674570;29;20454;-71
2023/01/04 06:42:50;;;;;;;2.43;2.30;;;7.30;97.20;;;;;;1674166;29;20198;-71
2023/01/04 06:43:40;;;;;;;2.80;2.55;;;7.30;97.20;;;;;;1674662;29;20216;-71
2023/01/04 06:44:32;;;;;;;3.23;2.50;;;7.30;97.20;;;;;;1674767;29;20214;-71
2023/01/04 06:45:23;;;;;;;3.45;3.10;;;7.30;97.20;;;;;;1674463;29;20213;-71
2023/01/04 06:46:15;;;;;;;2.60;2.33;;;7.30;97.20;;;;;;1674446;29;20220;-71
2023/01/04 06:47:07;;;;;;;2.70;2.47;;;7.30;97.20;;;;;;1674518;29;20461;-71
2023/01/04 06:47:58;;;;;;;2.67;2.47;;;7.30;97.20;;;;;;1674775;29;20202;-71
2023/01/04 06:48:49;;;;;;;2.40;2.20;;;7.30;97.20;;;;;;1674890;29;20218;-71
2023/01/04 06:49:41;;;;;;;2.67;2.43;;;7.30;97.20;;;;;;1674915;29;20297;-71
2023/01/04 06:50:31;;;;;;;2.60;2.40;;;7.30;97.20;;;;;;1674621;29;20221;-71
2023/01/04 06:51:23;;;;;;;2.70;2.50;;;7.30;97.20;;;;;;1674773;29;20308;-71
2023/01/04 06:52:14;;;;;;;3.38;2.85;;;7.30;97.20;;;;;;1674344;29;20210;-71
2023/01/04 06:53:06;;;;;;;2.40;2.23;;;7.30;97.20;;;;;;1674806;29;20668;-71
2023/01/04 06:53:56;;;;;;;2.70;2.50;;;7.30;97.20;;;;;;1674559;29;20229;-71
2023/01/04 06:54:48;;;;;;;3.17;2.53;;;7.30;97.20;;;;;;1674789;29;20213;-71
2023/01/04 06:55:39;;;;;;;2.80;2.60;;;7.30;97.20;;;;;;1674692;29;20454;-71
2023/01/04 06:56:32;;;;;;;3.00;2.43;;;7.30;97.20;;;;;;1674913;29;20657;-71
2023/01/04 06:57:23;;;;;;;2.92;2.60;;;7.30;97.20;;;;;;1674649;29;20221;-71
2023/01/04 06:58:14;;;;;;;2.70;2.50;;;7.30;97.20;;;;;;1674877;29;20297;-71
2023/01/04 06:59:07;;;;;;;2.38;2.17;;;7.30;97.20;;;;;;1674638;29;20210;-71
2023/01/04 06:59:58;;;;;;;2.90;2.70;;;7.30;97.20;;;;;;1674672;29;20252;-71
2023/01/04 07:00:50;;;;;;;2.95;2.58;;;7.30;97.20;;;;;;1674763;29;20229;-71
2023/01/04 07:01:42;;;;;;;2.80;2.60;;;7.30;97.20;;;;;;1674192;29;20224;-71
2023/01/04 07:02:34;;;;;;;2.67;2.47;;;7.30;97.20;;;;;;1674156;29;20202;-71
2023/01/04 07:03:26;;;;;;;2.92;2.60;;;7.30;97.20;;;;;;1674586;29;20210;-70
2023/01/04 07:04:17;;;;;;;3.20;2.30;;;7.30;97.20;;;;;;1674781;29;20205;-71
2023/01/04 07:05:09;;;;;;;2.50;2.30;;;7.30;97.20;;;;;;1674883;29;20217;-71
2023/01/04 07:06:03;;;;;;;2.50;2.30;;;7.30;97.20;;;;;;1674713;29;20222;-71
2023/01/04 07:06:56;;;;;;;2.70;2.50;;;7.30;97.20;;;;;;1674535;29;20236;-71
2023/01/04 07:07:47;;;;;;;2.65;2.45;;;7.30;97.20;;;;;;1677010;29;20213;-71
2023/01/04 07:08:39;;;;;;;2.33;2.13;;;7.30;97.20;;;;;;1681144;29;20205;-72
2023/01/04 07:09:29;;;;;;;2.50;2.25;;;7.40;97.20;;;;;;1681055;29;20213;-71
2023/01/04 07:10:21;;;;;;;2.50;2.23;;;7.40;97.20;;;;;;1680921;29;20209;-70
2023/01/04 07:11:12;;;;;;;2.45;2.25;;;7.40;97.20;;;;;;1681207;29;20694;-71
2023/01/04 07:12:04;;;;;;;2.53;2.30;;;7.40;97.20;;;;;;1680982;29;20599;-71
2023/01/04 07:12:55;;;;;;;2.75;2.55;;;7.40;97.20;;;;;;1680699;29;20216;-71
2023/01/04 07:13:46;;;;;;;3.90;2.53;;;7.40;97.20;;;;;;1680948;29;20211;-71
2023/01/04 07:14:37;;;;;;;2.95;2.50;;;7.40;97.20;;;;;;1681171;29;20464;-72
2023/01/04 07:15:29;;;;;;;1.87;1.77;;;7.40;97.20;;;;;;1681124;29;20205;-72
2023/01/04 07:16:20;;;;;;;2.38;2.10;;;7.40;97.20;;;;;;1681100;29;20235;-72
2023/01/04 07:17:11;;;;;;;2.63;2.43;;;7.40;97.20;;;;;;1680988;29;20209;-72
2023/01/04 07:18:03;;;;;;;2.85;2.15;;;7.50;97.20;;;;;;1680937;29;20205;-71
2023/01/04 07:18:55;;;;;;;3.80;1.85;;;7.50;97.20;;;;;;1681085;29;20217;-71
2023/01/04 07:19:46;;;;;;;4.40;2.30;;;7.50;97.20;;;;;;1681064;29;20239;-71
2023/01/04 07:20:38;;;;;;;2.30;2.00;;;7.50;97.20;;;;;;1680967;29;20232;-71
2023/01/04 07:21:29;;;;;;;1.70;1.60;;;7.50;97.20;;;;;;1681082;29;20469;-71
2023/01/04 07:22:21;;;;;;;2.53;2.27;;;7.60;97.20;;;;;;1680642;29;20215;-71
2023/01/04 07:23:11;;;;;;;1.70;1.60;;;7.60;97.20;;;;;;1675799;29;20209;-71
2023/01/04 07:24:03;;;;;;;1.73;1.63;;;7.50;97.20;;;;;;1673188;29;20224;-71
2023/01/04 07:24:54;;;;;;;2.42;2.17;;;7.50;97.20;;;;;;1679636;29;20573;-71
2023/01/04 07:25:46;;;;;;;3.30;1.92;;;7.50;97.20;;;;;;1680796;29;20220;-71
2023/01/04 07:26:37;;;;;;;1.88;1.77;;;7.50;97.20;;;;;;1678266;29;20701;-71
2023/01/04 07:27:28;;;;;;;2.20;2.00;;;7.50;97.20;;;;;;1679719;29;20201;-71
2023/01/04 07:29:26;;;;;;;2.85;2.00;;;7.50;97.20;;;;;;1676994;29;20189;-69
2023/01/04 07:30:17;;;;;;;2.30;2.10;;;7.50;97.20;;;;;;1676496;29;20201;-71
2023/01/04 07:31:09;;;;;;;1.90;1.80;;;7.50;97.20;;;;;;1678686;29;20185;-71
2023/01/04 07:31:59;;;;;;;1.70;1.60;;;7.50;97.20;;;;;;1677090;29;20473;-71
2023/01/04 07:32:52;;;;;;;2.97;1.80;;;7.50;97.20;;;;;;1675852;29;20201;-70
2023/01/04 07:33:48;;;;;;;1.90;1.80;;;7.40;97.20;;;;;;1680787;29;20235;-70
2023/01/04 07:34:40;;;;;;;2.90;2.30;;;7.40;97.20;;;;;;1676818;29;20335;-71
2023/01/04 07:35:30;;;;;;;2.60;1.80;;;7.40;97.20;;;;;;1674289;29;20221;-70
2023/01/04 07:36:22;;;;;;;1.87;1.70;;;7.40;97.20;;;;;;1668401;29;20297;-70
2023/01/04 07:37:14;;;;;;;1.95;1.50;;;7.40;97.20;;;;;;1668051;29;20214;-70
2023/01/04 07:38:06;;;;;;;2.47;2.20;;;7.40;97.20;;;;;;1666565;29;20202;-71
2023/01/04 07:38:58;;;;;;;2.00;1.80;;;7.40;97.20;;;;;;1667922;29;20210;-71
2023/01/04 07:39:49;;;;;;;1.85;1.75;;;7.40;97.20;;;;;;1672274;29;20550;-71
2023/01/04 07:40:40;;;;;;;2.13;1.92;;;7.40;97.20;;;;;;1670767;29;20270;-71
2023/01/04 07:41:32;;;;;;;2.43;2.00;;;7.40;97.20;;;;;;1670610;29;20213;-71
2023/01/04 07:42:24;;;;;;;3.03;2.10;;;7.40;97.20;;;;;;1669359;29;20219;-71
2023/01/04 07:43:14;;;;;;;2.00;1.90;;;7.30;97.20;;;;;;1672190;29;20967;-71
2023/01/04 07:44:07;;;;;;;2.30;2.10;;;7.30;97.20;;;;;;1672478;29;20675;-71
2023/01/04 07:44:57;;;;;;;3.08;1.80;;;7.30;97.20;;;;;;1672218;29;20704;-71
2023/01/04 07:45:49;;;;;;;2.23;2.00;;;7.30;97.20;;;;;;1668566;29;20656;-71
2023/01/04 07:46:41;;;;;;;2.60;2.40;;;7.30;97.20;;;;;;1670729;29;20198;-71
2023/01/04 07:47:33;;;;;;;1.83;1.70;;;7.30;97.20;;;;;;1674593;29;20270;-71
2023/01/04 07:48:23;;;;;;;2.53;2.17;;;7.30;97.20;;;;;;1668927;29;20211;-71
2023/01/04 07:49:17;;;;;;;2.17;1.97;;;7.30;97.20;;;;;;1668166;29;20278;-71
2023/01/04 07:50:09;;;;;;;2.05;1.88;;;7.30;97.20;;;;;;1673072;29;20202;-71
2023/01/04 07:51:00;;;;;;;2.22;2.03;;;7.20;97.20;;;;;;1672477;29;20214;-70
2023/01/04 07:51:51;;;;;;;2.20;2.00;;;7.30;97.20;;;;;;1671994;29;20233;-70
2023/01/04 07:52:43;;;;;;;3.37;1.80;;;7.20;97.20;;;;;;1672199;29;20217;-71
2023/01/04 07:53:34;;;;;;;4.50;1.80;;;7.20;97.20;;;;;;1672123;29;20900;-70
2023/01/04 07:54:25;;;;;;;2.90;1.80;;;7.20;97.20;;;;;;1672372;29;20268;-70
2023/01/04 07:55:16;;;;;;;2.92;1.90;;;7.20;97.20;;;;;;1671682;29;20454;-70
2023/01/04 07:56:08;;;;;;;2.50;1.73;;;7.20;97.20;;;;;;1673139;29;20337;-70
2023/01/04 07:56:59;;;;;;;2.10;1.95;;;7.20;97.20;;;;;;1672016;29;20455;-70
2023/01/04 07:57:53;;;;;;;2.80;2.60;;;7.20;97.20;;;;;;1673780;29;20214;-70
2023/01/04 07:58:43;;;;;;;2.80;2.28;;;7.20;97.20;;;;;;1673633;29;20653;-70
2023/01/04 07:59:35;;;;;;;1.63;1.53;;;7.20;97.20;;;;;;1673517;29;20690;-70
2023/01/04 08:00:26;;;;;;;2.33;2.13;;;7.20;97.20;;;;;;1674569;29;20575;-70
2023/01/04 08:01:19;;;;;;;2.60;2.30;;;7.20;97.20;;;;;;1673612;29;20802;-70
2023/01/04 08:02:10;;;;;;;2.33;1.88;;;7.30;97.20;;;;;;1673044;29;20673;-70
2023/01/04 08:03:02;;;;;;;1.67;1.58;;;7.30;97.20;;;;;;1668977;29;20214;-70
2023/01/04 08:03:54;;;;;;;1.75;1.65;;;7.30;97.20;;;;;;1672621;29;20233;-70
2023/01/04 08:04:46;;;;;;;2.13;1.95;;;7.20;97.20;;;;;;1673060;29;20206;-70
2023/01/04 08:05:38;;;;;;;3.03;2.05;;;7.30;97.20;;;;;;1673100;29;20210;-70
2023/01/04 08:06:29;;;;;;;2.92;2.25;;;7.30;97.20;;;;;;1671781;29;20217;-70
2023/01/04 08:07:20;;;;;;;2.20;1.70;;;7.30;97.20;;;;;;1671638;29;20220;-70
2023/01/04 08:08:11;;;;;;;4.28;2.45;;;7.20;97.20;;;;;;1671285;29;20334;-70
2023/01/04 08:09:04;;;;;;;4.00;2.00;;;7.20;97.20;;;;;;1672345;29;20202;-70
2023/01/04 08:09:54;;;;;;;2.03;1.70;;;7.20;97.20;;;;;;1668743;29;20210;-70
2023/01/04 08:10:46;;;;;;;2.50;1.57;;;7.30;97.20;;;;;;1673191;29;20228;-70
2023/01/04 08:11:37;;;;;;;2.97;1.65;;;7.30;97.20;;;;;;1670140;29;20253;-70
2023/01/04 08:12:29;;;;;;;2.28;2.08;;;7.30;97.20;;;;;;1672348;29;20292;-70
2023/01/04 08:13:20;;;;;;;2.50;1.95;;;7.30;97.20;;;;;;1672908;29;20218;-69
2023/01/04 08:14:11;;;;;;;2.27;2.00;;;7.30;97.20;;;;;;1673345;29;20214;-70
2023/01/04 08:15:03;;;;;;;2.63;1.80;;;7.30;97.20;;;;;;1673649;29;20232;-70
2023/01/04 08:15:55;;;;;;;1.85;1.67;;;7.30;97.20;;;;;;1673162;29;20769;-70
2023/01/04 08:16:46;;;;;;;1.90;1.35;;;7.30;97.20;;;;;;1672056;29;20233;-69
2023/01/04 08:17:37;;;;;;;2.23;1.40;;;7.30;97.20;;;;;;1672439;29;20206;-70
2023/01/04 08:18:28;;;;;;;2.10;1.83;;;7.30;97.20;;;;;;1672921;29;20213;-70
2023/01/04 08:19:21;;;;;;;1.67;1.50;;;7.30;97.20;;;;;;1673434;29;20198;-70
2023/01/04 08:20:13;;;;;;;1.52;1.42;;;7.30;97.20;;;;;;1668511;29;20326;-70
2023/01/04 08:21:06;;;;;;;2.55;1.67;;;7.30;97.20;;;;;;1673731;29;20306;-70
2023/01/04 08:21:57;;;;;;;2.28;1.75;;;7.30;97.20;;;;;;1673120;29;20198;-70
2023/01/04 08:22:49;;;;;;;2.83;2.00;;;7.30;97.20;;;;;;1672568;29;20205;-70
2023/01/04 08:23:40;;;;;;;3.08;2.05;;;7.30;97.20;;;;;;1672998;29;20861;-69
2023/01/04 08:24:31;;;;;;;2.20;2.00;;;7.30;97.20;;;;;;1668639;29;20656;-70
2023/01/04 08:25:22;;;;;;;2.65;1.55;;;7.30;97.20;;;;;;1671980;29;20233;-72
2023/01/04 08:26:15;;;;;;;1.80;1.70;;;7.30;97.20;;;;;;1669185;29;20256;-72
2023/01/04 08:27:07;;;;;;;1.30;1.20;;;7.30;97.20;;;;;;1673024;29;20213;-72
2023/01/04 08:27:58;;;;;;;1.70;1.60;;;7.30;97.20;;;;;;1672987;29;20206;-72
2023/01/04 08:28:50;;;;;;;3.78;1.70;;;7.30;97.20;;;;;;1673647;29;20210;-70
2023/01/04 08:29:42;;;;;;;2.28;1.80;;;7.30;97.20;;;;;;1668754;29;20300;-70
2023/01/04 08:30:32;;;;;;;2.35;1.70;;;7.30;97.20;;;;;;1672960;29;20238;-70
2023/01/04 08:31:26;;;;;;;1.63;1.53;;;7.30;97.20;;;;;;1673328;29;20289;-70
2023/01/04 08:32:16;;;;;;;2.97;1.52;;;7.30;97.20;;;;;;1672651;29;20592;-70
2023/01/04 08:33:14;;;;;;;1.53;1.43;;;7.30;97.20;;;;;;1672757;29;20577;-70
2023/01/04 08:34:07;;;;;;;2.30;1.90;;;7.30;97.20;;;;;;1673060;29;20229;-70
2023/01/04 08:34:58;;;;;;;2.47;1.90;;;7.30;97.20;;;;;;1671923;29;20221;-72
2023/01/04 08:35:51;;;;;;;2.10;2.00;;;7.30;97.20;;;;;;1672964;29;20210;-72
2023/01/04 08:36:48;;;;;;;3.78;2.10;;;7.30;97.20;;;;;;1672952;29;20715;-72
2023/01/04 08:37:38;;;;;;;2.55;2.10;;;7.30;97.20;;;;;;1672457;29;20258;-72
2023/01/04 08:38:30;;;;;;;2.17;1.97;;;7.30;97.20;;;;;;1668602;29;20203;-72
2023/01/04 08:39:21;;;;;;;2.17;1.42;;;7.30;97.20;;;;;;1671781;29;20209;-72
2023/01/04 08:40:12;;;;;;;2.53;1.60;;;7.30;97.20;;;;;;1671439;29;20210;-73
2023/01/04 08:41:04;;;;;;;1.88;1.50;;;7.30;97.20;;;;;;1669790;29;20571;-72
2023/01/04 08:41:56;;;;;;;4.63;1.80;;;7.30;97.20;;;;;;1668450;29;20263;-72
2023/01/04 08:42:46;;;;;;;1.92;1.30;;;7.30;97.20;;;;;;1669574;29;21914;-72
2023/01/04 08:43:38;;;;;;;1.97;1.60;;;7.40;97.20;;;;;;1673016;29;20194;-72
2023/01/04 08:44:29;;;;;;;1.50;1.40;;;7.40;97.20;;;;;;1673106;29;20605;-72
2023/01/04 08:45:21;;;;;;;1.63;1.40;;;7.40;97.20;;;;;;1673812;29;20206;-72
2023/01/04 08:46:13;;;;;;;1.60;1.50;;;7.40;97.20;;;;;;1673143;29;20221;-72
2023/01/04 08:47:05;;;;;;;1.60;1.50;;;7.40;97.20;;;;;;1673120;29;20208;-72
2023/01/04 08:47:55;;;;;;;1.70;1.30;;;7.40;97.20;;;;;;1672491;29;20561;-72
2023/01/04 08:48:47;;;;;;;1.77;1.60;;;7.40;97.20;;;;;;1673378;29;20198;-72
2023/01/04 08:49:39;;;;;;;2.20;1.33;;;7.40;97.20;;;;;;1672867;29;20202;-72
2023/01/04 08:50:29;;;;;;;3.08;1.73;;;7.40;97.20;;;;;;1673902;29;20618;-70
2023/01/04 08:51:23;;;;;;;1.80;1.60;;;7.40;97.20;;;;;;1668463;29;20202;-70
2023/01/04 08:52:14;;;;;;;1.83;1.30;;;7.40;97.20;;;;;;1672114;29;20669;-70
2023/01/04 08:53:07;;;;;;;1.35;1.20;;;7.40;97.20;;;;;;1673057;29;20202;-70
2023/01/04 08:53:58;;;;;;;1.90;1.35;;;7.40;97.20;;;;;;1673006;29;20221;-70
2023/01/04 08:54:50;;;;;;;2.23;1.60;;;7.40;97.20;;;;;;1673931;29;20216;-70
2023/01/04 08:55:47;;;;;;;1.70;1.60;;;7.40;97.20;;;;;;1673081;29;20470;-70
2023/01/04 08:56:39;;;;;;;1.58;1.10;;;7.40;97.20;;;;;;1672696;29;20210;-70
2023/01/04 08:57:31;;;;;;;1.60;1.50;;;7.50;97.20;;;;;;1673581;29;20226;-70
2023/01/04 08:58:23;;;;;;;1.20;1.10;;;7.40;97.20;;;;;;1672777;29;20242;-70
2023/01/04 08:59:13;;;;;;;1.98;1.65;;;7.40;97.20;;;;;;1668084;29;20215;-70
2023/01/04 09:00:06;;;;;;;2.03;1.40;;;7.50;97.20;;;;;;1668414;29;20202;-70
2023/01/04 09:00:59;;;;;;;1.90;1.20;;;7.50;97.20;;;;;;1672998;29;20234;-70
2023/01/04 09:01:51;;;;;;;1.50;1.40;;;7.50;97.20;;;;;;1673085;29;20209;-70
2023/01/04 09:02:41;;;;;;;2.00;1.55;;;7.50;97.20;;;;;;1672070;29;20210;-70
2023/01/04 09:03:34;;;;;;;1.90;1.80;;;7.50;97.20;;;;;;1672958;29;20660;-70
2023/01/04 09:04:25;;;;;;;1.42;1.30;;;7.50;97.20;;;;;;1671787;29;20217;-70
2023/01/04 09:05:16;;;;;;;2.03;1.20;;;7.50;97.20;;;;;;1671368;29;20216;-70
2023/01/04 09:06:09;;;;;;;2.90;1.52;;;7.50;97.20;;;;;;1671426;29;20680;-70
2023/01/04 09:07:02;;;;;;;1.50;1.40;;;7.50;97.20;;;;;;1672915;29;20206;-70
2023/01/04 09:07:53;;;;;;;1.50;1.40;;;7.60;97.20;;;;;;1672582;29;20213;-70
2023/01/04 09:08:45;;;;;;;1.40;1.30;;;7.60;97.20;;;;;;1672283;29;20213;-70
2023/01/04 09:09:35;;;;;;;9.68;1.88;;;7.60;97.20;;;;;;1672708;29;20665;-70
2023/01/04 09:10:27;;;;;;;1.73;1.20;;;7.60;97.20;;;;;;1673624;29;20578;-70
2023/01/04 09:11:20;;;;;;;1.50;1.40;;;7.60;97.20;;;;;;1673118;29;20214;-70
2023/01/04 09:12:11;;;;;;;2.30;1.30;;;7.60;97.20;;;;;;1672366;29;20270;-71
2023/01/04 09:13:02;;;;;;;1.40;1.30;;;7.60;97.20;;;;;;1672698;29;20564;-70
2023/01/04 09:13:56;;;;;;;1.37;1.20;;;7.60;97.20;;;;;;1672909;29;20277;-70
2023/01/04 09:14:47;;;;;;;1.40;1.30;;;7.60;97.20;;;;;;1673019;29;20198;-70
2023/01/04 09:15:38;;;;;;;2.23;1.37;;;7.60;97.20;;;;;;1673142;29;20360;-72
2023/01/04 09:16:29;;;;;;;1.83;1.25;;;7.70;97.20;;;;;;1672924;29;20293;-72
2023/01/04 09:17:21;;;;;;;1.30;1.20;;;7.70;97.20;;;;;;1673571;29;20198;-72
2023/01/04 09:18:12;;;;;;;1.83;1.20;;;7.70;97.20;;;;;;1672531;29;20206;-72
2023/01/04 09:19:04;;;;;;;2.00;1.03;;;7.70;97.20;;;;;;1669117;29;20290;-70
2023/01/04 09:19:55;;;;;;;1.85;1.25;;;7.70;97.20;;;;;;1672675;29;20244;-71
2023/01/04 09:20:47;;;;;;;1.20;1.00;;;7.70;97.20;;;;;;1673053;29;20229;-70
2023/01/04 09:21:38;;;;;;;1.35;1.23;;;7.70;97.20;;;;;;1672958;29;20209;-70
2023/01/04 09:22:31;;;;;;;1.73;1.15;;;7.70;97.20;;;;;;1672922;29;20213;-70
2023/01/04 09:23:23;;;;;;;2.40;1.35;;;7.70;97.20;;;;;;1672889;29;20277;-71
2023/01/04 09:24:14;;;;;;;1.20;1.10;;;7.70;97.20;;;;;;1673428;29;20217;-70
2023/01/04 09:25:07;;;;;;;1.63;1.13;;;7.80;97.20;;;;;;1673036;29;20206;-74
2023/01/04 09:25:57;;;;;;;1.10;1.00;;;7.80;97.20;;;;;;1673036;29;20221;-70
2023/01/04 09:26:49;;;;;;;2.40;1.23;;;7.80;97.20;;;;;;1672556;29;20652;-70
2023/01/04 09:27:40;;;;;;;1.30;1.20;;;7.80;97.20;;;;;;1673023;29;20494;-71
2023/01/04 09:28:32;;;;;;;1.77;1.40;;;7.80;97.20;;;;;;1672114;29;20198;-70
2023/01/04 09:29:23;;;;;;;2.50;1.67;;;7.80;97.20;;;;;;1672950;29;20568;-70
2023/01/04 09:30:15;;;;;;;1.10;0.90;;;7.90;97.20;;;;;;1671461;29;20214;-70
2023/01/04 09:31:08;;;;;;;1.45;1.35;;;7.90;97.20;;;;;;1673152;29;20209;-70
2023/01/04 09:31:59;;;;;;;1.98;1.30;;;7.90;97.20;;;;;;1668107;29;20326;-70
2023/01/04 09:32:50;;;;;;;1.70;1.00;;;7.90;97.20;;;;;;1668030;29;20206;-70
2023/01/04 09:33:42;;;;;;;1.93;1.23;;;7.90;97.20;;;;;;1672971;29;20206;-70
2023/01/04 09:34:33;;;;;;;3.70;1.27;;;7.90;97.20;;;;;;1672992;29;20212;-70
2023/01/04 09:35:25;;;;;;;1.13;1.00;;;7.90;97.20;;;;;;1672938;29;20222;-70
2023/01/04 09:36:17;;;;;;;1.20;1.00;;;8.00;97.20;;;;;;1668148;29;20216;-70
2023/01/04 09:37:09;;;;;;;1.65;1.05;;;8.00;97.20;;;;;;1673308;29;20959;-70
2023/01/04 09:38:01;;;;;;;1.95;1.00;;;8.00;97.20;;;;;;1672285;29;20240;-70
2023/01/04 09:38:52;;;;;;;1.35;1.00;;;8.00;97.20;;;;;;1672654;29;20210;-70
2023/01/04 09:39:44;;;;;;;1.30;1.10;;;8.00;97.20;;;;;;1672858;29;20228;-71
2023/01/04 09:40:47;;;;;;;2.03;1.10;;;8.10;97.20;;;;;;1672783;29;20230;-70
2023/01/04 09:41:44;;;;;;;1.10;0.90;;;8.10;97.20;;;;;;1672914;29;20222;-70
2023/01/04 09:42:38;;;;;;;2.45;1.50;;;8.10;97.20;;;;;;1667832;29;21888;-70
2023/01/04 09:43:39;;;;;;;2.72;1.10;;;8.10;97.20;;;;;;1672437;29;20266;-70
2023/01/04 09:44:37;;;;;;;2.08;0.82;;;8.20;97.20;;;;;;1668199;29;20239;-70
2023/01/04 09:45:29;;;;;;;1.10;0.95;;;8.20;97.20;;;;;;1671378;29;20269;-71
2023/01/04 09:46:29;;;;;;;0.85;0.80;;;8.20;97.20;;;;;;1671334;29;20213;-71
2023/01/04 09:47:30;;;;;;;1.35;0.80;;;8.20;97.20;;;;;;1672714;29;20220;-71
2023/01/04 09:48:23;;;;;;;2.50;1.17;;;8.20;97.20;;;;;;1672319;29;20209;-71
2023/01/04 09:49:20;;;;;;;1.40;0.85;;;8.20;97.20;;;;;;1672564;29;20209;-71
2023/01/04 09:50:15;;;;;;;1.80;1.02;;;8.20;97.20;;;;;;1673897;29;20202;-71
2023/01/04 09:51:13;;;;;;;1.40;0.95;;;8.20;97.20;;;;;;1672734;29;20292;-71
2023/01/04 09:52:12;;;;;;;1.15;0.85;;;8.20;97.20;;;;;;1672695;29;20210;-71
2023/01/04 09:53:12;;;;;;;1.48;0.90;;;8.20;97.20;;;;;;1672703;29;20220;-71
2023/01/04 09:54:10;;;;;;;1.20;1.00;;;8.30;97.20;;;;;;1671142;29;20202;-71
2023/01/04 09:55:05;;;;;;;1.70;1.00;;;8.30;97.20;;;;;;1672704;29;20554;-71
2023/01/04 09:56:01;;;;;;;1.73;0.80;;;8.30;97.20;;;;;;1672572;29;20206;-71
2023/01/04 09:56:57;;;;;;;2.00;1.13;;;8.30;97.20;;;;;;1673403;29;20587;-71
2023/01/04 09:57:51;;;;;;;1.70;0.88;;;8.30;97.20;;;;;;1673097;29;20198;-71
2023/01/04 09:58:43;;;;;;;1.65;0.90;;;8.30;97.20;;;;;;1672227;29;20214;-71
2023/01/04 09:59:38;;;;;;;1.45;0.90;;;8.30;97.20;;;;;;1668850;29;20249;-71
2023/01/04 10:00:35;;;;;;;1.20;0.80;;;8.40;97.20;;;;;;1672737;29;20670;-71
2023/01/04 10:01:32;;;;;;;3.65;1.23;;;8.40;97.20;;;;;;1672905;29;20205;-71
2023/01/04 10:02:30;;;;;;;2.92;1.42;;;8.40;97.20;;;;;;1672235;29;20717;-71
2023/01/04 10:03:24;;;;;;;1.20;1.02;;;8.40;97.20;;;;;;1672842;29;20209;-71
2023/01/04 10:04:20;;;;;;;1.23;0.85;;;8.40;97.20;;;;;;1673021;29;20202;-72
2023/01/04 10:05:16;;;;;;;2.85;1.00;;;8.40;97.20;;;;;;1672584;29;20712;-71
2023/01/04 10:06:11;;;;;;;1.33;0.90;;;8.40;97.20;;;;;;1670537;29;20194;-71
2023/01/04 10:07:02;;;;;;;6.78;1.33;;;8.40;97.20;;;;;;1671049;29;20434;-71
2023/01/04 10:07:54;;;;;;;4.03;1.17;;;8.40;97.20;;;;;;1672466;29;20220;-71
2023/01/04 10:08:47;;;;;;;1.17;1.02;;;8.40;97.20;;;;;;1672267;29;20855;-71
2023/01/04 10:09:38;;;;;;;3.50;1.33;;;8.50;97.20;;;;;;1672411;29;20206;-71
2023/01/04 10:10:43;;;;;;;1.53;1.00;;;8.50;97.20;;;;;;1673443;29;20807;-72
2023/01/04 10:11:52;;;;;;;3.20;1.25;;;8.50;97.20;;;;;;1672411;29;20210;-71
2023/01/04 10:12:55;;;;;;;2.30;1.10;;;8.50;97.20;;;;;;1671934;29;20206;-71
2023/01/04 10:13:56;;;;;;;1.35;1.15;;;8.50;97.20;;;;;;1672055;29;20202;-71
2023/01/04 10:14:58;;;;;;;1.58;1.02;;;8.50;97.20;;;;;;1672965;29;20206;-71
2023/01/04 10:15:56;;;;;;;1.20;0.93;;;8.50;97.20;;;;;;1672935;29;20218;-71
2023/01/04 10:17:00;;;;;;;1.45;1.10;;;8.50;97.20;;;;;;1673143;29;20201;-71
2023/01/04 10:18:04;;;;;;;1.45;1.08;;;8.50;97.20;;;;;;1667856;29;20213;-71
2023/01/04 10:19:09;;;;;;;1.65;0.98;;;8.50;97.20;;;;;;1672923;29;20255;-71
2023/01/04 10:20:17;;;;;;;1.45;0.80;;;8.50;97.20;;;;;;1672310;29;20199;-71
2023/01/04 10:21:23;;;;;;;5.20;1.15;;;8.50;97.20;;;;;;1672465;29;20191;-71
2023/01/04 10:22:22;;;;;;;1.27;1.10;;;8.50;97.20;;;;;;1671967;29;20217;-71
2023/01/04 10:23:24;;;;;;;1.38;1.05;;;8.50;97.20;;;;;;1672655;29;20237;-71
2023/01/04 10:24:43;;;;;;;1.55;1.30;;;8.50;97.20;;;;;;1667940;29;20210;-71
2023/01/04 10:25:42;;;;;;;1.10;0.95;;;8.50;97.20;;;;;;1672090;29;20206;-71
2023/01/04 10:26:37;;;;;;;2.67;0.95;;;8.60;97.20;;;;;;1672638;29;20213;-71
2023/01/04 10:27:38;;;;;;;1.40;1.10;;;8.60;97.20;;;;;;1668043;29;21944;-71
2023/01/04 10:28:39;;;;;;;1.65;0.80;;;8.60;97.20;;;;;;1672244;29;20226;-71
2023/01/04 10:29:42;;;;;;;3.65;1.10;;;8.60;97.20;;;;;;1672405;29;20316;-71
2023/01/04 10:30:41;;;;;;;1.10;0.90;;;8.60;97.20;;;;;;1671920;29;20241;-71
2023/01/04 10:31:39;;;;;;;1.73;1.00;;;8.60;97.20;;;;;;1672428;29;20206;-71
2023/01/04 10:32:39;;;;;;;3.80;1.35;;;8.60;97.20;;;;;;1671924;29;20208;-71
2023/01/04 10:33:34;;;;;;;1.05;0.82;;;8.60;97.20;;;;;;1672226;29;20202;-71
2023/01/04 10:34:28;;;;;;;1.50;1.10;;;8.60;97.20;;;;;;1670943;29;20231;-71
2023/01/04 10:35:21;;;;;;;1.50;1.00;;;8.60;97.20;;;;;;1672278;29;20209;-71
2023/01/04 10:36:18;;;;;;;1.10;0.90;;;8.60;97.20;;;;;;1672592;29;20206;-71
2023/01/04 10:37:13;;;;;;;1.30;0.82;;;8.60;97.20;;;;;;1672578;29;20254;-71
2023/01/04 10:38:15;;;;;;;1.60;1.08;;;8.60;97.20;;;;;;1672322;29;20194;-71
2023/01/04 10:39:21;;;;;;;1.20;1.02;;;8.60;97.20;;;;;;1672567;29;20194;-71
2023/01/04 10:40:16;;;;;;;2.38;1.15;;;8.60;97.20;;;;;;1671915;29;20210;-71
2023/01/04 10:41:12;;;;;;;4.30;1.20;;;8.60;97.20;;;;;;1672428;29;20198;-71